createdAt,value
2018-07-06T00:02:37.067Z,3.17
2018-07-06T00:05:23.264Z,3.67
2018-07-06T00:08:09.817Z,4.30
2018-07-06T00:10:56.043Z,3.73
2018-07-06T00:13:42.288Z,3.57
2018-07-06T00:16:28.724Z,3.37
2018-07-06T00:19:14.941Z,3.40
2018-07-06T00:22:01.130Z,3.80
2018-07-06T00:24:47.423Z,3.47
2018-07-06T00:27:33.750Z,3.37
2018-07-06T00:30:19.982Z,3.50
2018-07-06T00:33:06.882Z,3.40
2018-07-06T00:35:53.088Z,3.23
2018-07-06T00:38:39.251Z,3.50
2018-07-06T00:41:25.796Z,3.97
2018-07-06T00:44:11.917Z,3.37
2018-07-06T00:46:52.190Z,3.60
2018-07-06T00:49:41.960Z,3.80
2018-07-06T00:52:28.119Z,3.83
2018-07-06T00:55:14.524Z,4.00
2018-07-06T00:58:00.631Z,3.63
2018-07-06T01:00:46.794Z,3.70
2018-07-06T01:03:33.188Z,3.70
2018-07-06T01:06:20.150Z,4.30
2018-07-06T01:09:06.498Z,3.90
2018-07-06T01:11:52.883Z,4.30
2018-07-06T01:14:39.049Z,3.53
2018-07-06T01:17:25.562Z,4.30
2018-07-06T01:20:11.980Z,3.90
2018-07-06T01:22:58.575Z,4.00
2018-07-06T01:25:44.707Z,3.90
2018-07-06T01:28:30.872Z,4.13
2018-07-06T01:31:11.021Z,4.13
2018-07-06T01:33:57.299Z,3.33
2018-07-06T01:36:43.381Z,4.17
2018-07-06T01:39:31.237Z,3.70
2018-07-06T01:42:17.489Z,3.60
2018-07-06T01:45:03.656Z,4.17
2018-07-06T01:47:49.906Z,4.07
2018-07-06T01:50:36.155Z,4.00
2018-07-06T01:53:22.433Z,3.97
2018-07-06T01:56:08.831Z,3.80
2018-07-06T01:58:55.076Z,4.27
2018-07-06T02:01:41.345Z,4.27
2018-07-06T02:04:27.632Z,3.90
2018-07-06T02:07:13.719Z,4.07
2018-07-06T02:10:00.634Z,4.67
2018-07-06T02:12:47.213Z,4.47
2018-07-06T02:15:33.539Z,4.50
2018-07-06T02:18:19.710Z,5.00
2018-07-06T02:21:05.913Z,4.70
2018-07-06T02:23:52.306Z,5.60
2018-07-06T02:26:38.627Z,4.20
2018-07-06T02:29:25.385Z,4.60
2018-07-06T02:32:11.765Z,4.50
2018-07-06T02:34:57.913Z,5.03
2018-07-06T02:37:44.133Z,4.33
2018-07-06T02:40:30.400Z,5.07
2018-07-06T02:43:16.609Z,4.20
2018-07-06T02:46:03.278Z,4.97
2018-07-06T02:48:49.636Z,3.97
2018-07-06T02:51:35.928Z,4.00
2018-07-06T02:54:22.067Z,4.67
2018-07-06T02:57:02.443Z,4.07
2018-07-06T02:59:48.674Z,4.40
2018-07-06T03:02:35.184Z,4.80
2018-07-06T03:05:21.560Z,4.50
2018-07-06T03:08:07.855Z,4.43
2018-07-06T03:10:54.676Z,4.53
2018-07-06T03:13:40.950Z,5.37
2018-07-06T03:16:27.283Z,5.10
2018-07-06T03:19:14.145Z,4.70
2018-07-06T03:22:00.570Z,4.77
2018-07-06T03:24:46.793Z,4.67
2018-07-06T03:27:33.344Z,3.90
2018-07-06T03:30:19.514Z,4.30
2018-07-06T03:33:05.515Z,4.40
2018-07-06T03:35:51.995Z,4.63
2018-07-06T03:38:38.292Z,4.37
2018-07-06T03:41:24.627Z,4.97
2018-07-06T03:44:11.060Z,4.10
2018-07-06T03:46:57.343Z,5.10
2018-07-06T03:49:43.543Z,5.13
2018-07-06T03:52:29.906Z,5.23
2018-07-06T03:55:20.857Z,5.10
2018-07-06T03:58:07.159Z,6.40
2018-07-06T04:00:53.837Z,5.10
2018-07-06T04:03:40.015Z,4.87
2018-07-06T04:06:26.227Z,6.27
2018-07-06T04:09:12.930Z,4.67
2018-07-06T04:11:59.328Z,4.67
2018-07-06T04:14:45.606Z,4.70
2018-07-06T04:17:31.766Z,4.73
2018-07-06T04:20:18.103Z,5.20
2018-07-06T04:23:04.350Z,5.27
2018-07-06T04:25:51.079Z,5.37
2018-07-06T04:28:37.317Z,5.10
2018-07-06T04:31:23.857Z,5.80
2018-07-06T04:34:10.182Z,6.37
2018-07-06T04:36:56.600Z,5.60
2018-07-06T04:39:42.787Z,5.20
2018-07-06T04:42:29.279Z,4.97
2018-07-06T04:45:15.559Z,4.43
2018-07-06T04:48:01.983Z,4.90
2018-07-06T04:50:48.281Z,5.00
2018-07-06T04:53:34.736Z,4.37
2018-07-06T04:56:20.863Z,4.27
2018-07-06T04:59:07.681Z,4.50
2018-07-06T05:01:53.834Z,5.00
2018-07-06T05:04:40.344Z,4.37
2018-07-06T05:07:26.461Z,4.10
2018-07-06T05:10:12.672Z,4.60
2018-07-06T05:12:58.991Z,3.50
2018-07-06T05:15:45.343Z,3.90
2018-07-06T05:18:31.703Z,3.97
2018-07-06T05:21:12.190Z,3.80
2018-07-06T05:23:58.555Z,3.20
2018-07-06T05:26:44.788Z,3.93
2018-07-06T05:29:31.127Z,4.00
2018-07-06T05:32:17.427Z,3.67
2018-07-06T05:34:57.767Z,3.70
2018-07-06T05:37:43.999Z,3.70
2018-07-06T05:40:30.359Z,4.00
2018-07-06T05:43:16.607Z,4.20
2018-07-06T05:46:02.786Z,4.27
2018-07-06T05:48:49.410Z,3.73
2018-07-06T05:51:35.640Z,4.27
2018-07-06T05:54:21.954Z,3.37
2018-07-06T05:57:08.079Z,3.63
2018-07-06T05:59:54.207Z,3.50
2018-07-06T06:02:40.558Z,2.60
2018-07-06T06:05:27.031Z,3.10
2018-07-06T06:07:54.810Z,3.60
2018-07-06T06:10:24.125Z,3.60
2018-07-06T06:12:53.453Z,3.07
2018-07-06T06:15:22.747Z,3.40
2018-07-06T06:17:52.037Z,3.83
2018-07-06T06:20:21.355Z,3.60
2018-07-06T06:22:50.656Z,3.53
2018-07-06T06:25:20.006Z,3.50
2018-07-06T06:27:49.684Z,3.97
2018-07-06T06:30:19.223Z,4.37
2018-07-06T06:32:48.734Z,3.90
2018-07-06T06:35:18.094Z,4.10
2018-07-06T06:37:47.431Z,4.20
2018-07-06T06:40:16.727Z,3.77
2018-07-06T06:42:46.216Z,3.73
2018-07-06T06:45:15.574Z,4.00
2018-07-06T06:47:44.919Z,4.53
2018-07-06T06:50:14.340Z,4.30
2018-07-06T06:52:43.828Z,3.70
2018-07-06T06:55:13.149Z,3.40
2018-07-06T06:57:42.635Z,4.00
2018-07-06T07:00:11.949Z,3.60
2018-07-06T07:02:41.424Z,4.00
2018-07-06T07:05:10.796Z,3.87
2018-07-06T07:07:40.267Z,3.60
2018-07-06T07:10:09.579Z,4.00
2018-07-06T07:12:39.235Z,4.13
2018-07-06T07:15:08.610Z,4.30
2018-07-06T07:17:37.924Z,3.13
2018-07-06T07:20:07.307Z,3.13
2018-07-06T07:22:36.660Z,4.30
2018-07-06T07:25:05.970Z,4.10
2018-07-06T07:27:35.356Z,4.20
2018-07-06T07:30:04.768Z,4.50
2018-07-06T07:32:34.041Z,4.40
2018-07-06T07:35:03.906Z,3.83
2018-07-06T07:37:33.234Z,3.37
2018-07-06T07:40:09.266Z,3.70
2018-07-06T07:42:38.579Z,3.50
2018-07-06T07:45:07.917Z,3.73
2018-07-06T07:47:37.341Z,4.10
2018-07-06T07:50:06.687Z,4.13
2018-07-06T07:52:53.396Z,3.70
2018-07-06T07:55:22.812Z,3.70
2018-07-06T07:57:52.153Z,4.03
2018-07-06T08:00:21.716Z,3.40
2018-07-06T08:02:50.997Z,3.37
2018-07-06T08:05:20.344Z,3.37
2018-07-06T08:07:49.693Z,3.80
2018-07-06T08:10:19.096Z,4.23
2018-07-06T08:12:48.472Z,3.50
2018-07-06T08:15:18.159Z,3.60
2018-07-06T08:17:47.455Z,3.13
2018-07-06T08:20:16.811Z,3.97
2018-07-06T08:22:46.167Z,3.93
2018-07-06T08:25:15.513Z,3.30
2018-07-06T08:27:44.840Z,3.27
2018-07-06T08:30:14.194Z,3.60
2018-07-06T08:32:43.528Z,3.80
2018-07-06T08:35:30.358Z,4.00
2018-07-06T08:38:03.317Z,3.43
2018-07-06T08:40:32.668Z,3.20
2018-07-06T08:43:04.275Z,3.80
2018-07-06T08:45:34.322Z,3.97
2018-07-06T08:48:03.743Z,4.20
2018-07-06T08:50:33.089Z,3.40
2018-07-06T08:53:02.670Z,4.20
2018-07-06T08:55:32.248Z,4.27
2018-07-06T08:58:01.348Z,4.07
2018-07-06T09:00:30.675Z,4.30
2018-07-06T09:02:59.947Z,4.20
2018-07-06T09:05:29.212Z,3.57
2018-07-06T09:07:58.577Z,4.40
2018-07-06T09:10:27.883Z,4.60
2018-07-06T09:12:57.257Z,4.43
2018-07-06T09:15:27.136Z,4.67
2018-07-06T09:17:56.530Z,4.60
2018-07-06T09:20:25.843Z,5.20
2018-07-06T09:22:55.234Z,5.20
2018-07-06T09:25:24.703Z,4.63
2018-07-06T09:27:53.974Z,4.90
2018-07-06T09:30:23.501Z,4.70
2018-07-06T09:32:52.716Z,4.80
2018-07-06T09:35:21.989Z,4.47
2018-07-06T09:37:51.396Z,4.87
2018-07-06T09:40:20.483Z,5.40
2018-07-06T09:42:49.773Z,5.57
2018-07-06T09:45:19.111Z,4.30
2018-07-06T09:47:48.420Z,4.80
2018-07-06T09:50:17.790Z,4.70
2018-07-06T09:52:47.224Z,4.70
2018-07-06T09:55:16.608Z,4.80
2018-07-06T09:57:45.915Z,5.40
2018-07-06T10:01:17.972Z,6.00
2018-07-06T10:03:47.178Z,4.17
2018-07-06T10:06:16.495Z,4.23
2018-07-06T10:08:45.963Z,4.40
2018-07-06T10:11:15.274Z,4.23
2018-07-06T10:13:44.598Z,4.57
2018-07-06T10:16:14.045Z,5.07
2018-07-06T10:18:43.343Z,4.47
2018-07-06T10:21:12.676Z,4.43
2018-07-06T10:23:42.590Z,4.13
2018-07-06T10:26:12.066Z,4.73
2018-07-06T10:33:05.901Z,4.17
2018-07-06T10:35:35.231Z,4.40
2018-07-06T10:38:04.502Z,4.20
2018-07-06T10:40:34.668Z,4.60
2018-07-06T10:43:04.015Z,4.10
2018-07-06T10:45:33.343Z,4.00
2018-07-06T10:48:02.642Z,4.50
2018-07-06T10:50:31.954Z,4.50
2018-07-06T10:53:01.464Z,4.33
2018-07-06T10:55:30.854Z,4.47
2018-07-06T10:58:00.231Z,4.50
2018-07-06T11:00:29.542Z,3.90
2018-07-06T11:02:59.059Z,5.47
2018-07-06T11:05:28.405Z,4.10
2018-07-06T11:07:57.773Z,3.77
2018-07-06T11:10:27.165Z,4.20
2018-07-06T11:12:56.541Z,2.90
2018-07-06T11:15:25.947Z,3.93
2018-07-06T11:17:55.373Z,4.00
2018-07-06T11:20:24.426Z,4.23
2018-07-06T11:22:53.777Z,4.17
2018-07-06T11:25:23.312Z,3.57
2018-07-06T11:27:52.691Z,3.50
2018-07-06T11:30:22.211Z,4.07
2018-07-06T11:32:51.614Z,3.50
2018-07-06T11:35:21.980Z,3.80
2018-07-06T11:37:51.363Z,3.83
2018-07-06T11:40:20.726Z,3.60
2018-07-06T11:42:50.062Z,3.50
2018-07-06T11:45:19.525Z,2.73
2018-07-06T11:47:49.334Z,3.17
2018-07-06T11:50:18.672Z,3.00
2018-07-06T11:52:48.016Z,2.90
2018-07-06T11:55:17.355Z,2.90
2018-07-06T11:57:49.114Z,2.80
2018-07-06T12:00:18.514Z,5.53
2018-07-06T12:02:47.877Z,2.50
2018-07-06T12:05:17.243Z,3.00
2018-07-06T12:07:46.792Z,3.20
2018-07-06T12:10:16.130Z,3.00
2018-07-06T12:12:45.454Z,2.80
2018-07-06T12:15:14.861Z,2.10
2018-07-06T12:17:44.206Z,2.10
2018-07-06T12:20:13.592Z,2.30
2018-07-06T12:22:43.272Z,3.07
2018-07-06T12:25:12.748Z,2.43
2018-07-06T12:27:42.871Z,1.80
2018-07-06T12:30:12.617Z,2.90
2018-07-06T12:32:42.006Z,2.10
2018-07-06T12:35:11.326Z,2.40
2018-07-06T12:37:40.754Z,2.43
2018-07-06T12:40:10.976Z,2.73
2018-07-06T12:42:40.302Z,2.73
2018-07-06T12:45:09.604Z,2.27
2018-07-06T12:47:39.021Z,2.30
2018-07-06T12:50:08.793Z,1.80
2018-07-06T12:52:38.376Z,1.70
2018-07-06T12:55:07.840Z,2.20
2018-07-06T12:57:37.289Z,2.20
2018-07-06T13:00:06.646Z,1.87
2018-07-06T13:02:36.575Z,2.77
2018-07-06T13:05:06.011Z,1.60
2018-07-06T13:07:35.403Z,1.97
2018-07-06T13:10:05.193Z,1.67
2018-07-06T13:12:34.494Z,1.40
2018-07-06T13:15:04.100Z,2.90
2018-07-06T13:17:33.413Z,2.07
2018-07-06T13:20:02.698Z,1.93
2018-07-06T13:22:32.032Z,1.70
2018-07-06T13:25:01.308Z,1.57
2018-07-06T13:27:30.999Z,1.80
2018-07-06T13:30:01.368Z,2.53
2018-07-06T13:32:30.772Z,2.00
2018-07-06T13:35:00.110Z,2.10
2018-07-06T13:37:29.555Z,3.03
2018-07-06T13:39:58.614Z,1.73
2018-07-06T13:42:27.893Z,2.40
2018-07-06T13:44:57.355Z,2.07
2018-07-06T13:47:26.807Z,2.20
2018-07-06T13:49:56.183Z,2.23
2018-07-06T13:52:25.628Z,1.70
2018-07-06T13:54:55.002Z,1.90
2018-07-06T13:57:24.295Z,2.43
2018-07-06T13:59:54.138Z,2.23
2018-07-06T14:02:23.436Z,2.13
2018-07-06T14:04:52.763Z,2.10
2018-07-06T14:07:22.248Z,2.20
2018-07-06T14:09:51.661Z,2.20
2018-07-06T14:12:21.007Z,2.13
2018-07-06T14:14:50.451Z,2.20
2018-07-06T14:17:19.999Z,2.17
2018-07-06T14:19:49.293Z,2.07
2018-07-06T14:22:18.934Z,2.43
2018-07-06T14:24:48.264Z,2.20
2018-07-06T14:27:17.641Z,1.90
2018-07-06T14:29:47.038Z,2.10
2018-07-06T14:32:16.338Z,2.13
2018-07-06T14:34:45.789Z,1.90
2018-07-06T14:37:15.213Z,2.30
2018-07-06T14:39:44.652Z,2.13
2018-07-06T14:42:13.954Z,1.80
2018-07-06T14:44:43.872Z,1.43
2018-07-06T14:47:13.167Z,1.93
2018-07-06T14:49:42.511Z,1.93
2018-07-06T14:52:11.875Z,3.10
2018-07-06T14:54:41.168Z,2.27
2018-07-06T14:57:10.519Z,1.57
2018-07-06T14:59:40.164Z,2.27
2018-07-06T15:02:09.521Z,2.40
2018-07-06T15:04:38.920Z,2.80
2018-07-06T15:07:08.569Z,2.27
2018-07-06T15:09:37.874Z,2.10
2018-07-06T15:12:07.286Z,2.73
2018-07-06T15:14:36.676Z,1.97
2018-07-06T15:17:06.287Z,1.87
2018-07-06T15:19:35.604Z,2.30
2018-07-06T15:22:05.158Z,1.57
2018-07-06T15:24:34.714Z,1.53
2018-07-06T15:27:04.112Z,1.90
2018-07-06T15:29:33.897Z,1.77
2018-07-06T15:32:03.506Z,1.93
2018-07-06T15:34:33.019Z,2.17
2018-07-06T15:37:02.628Z,2.30
2018-07-06T15:39:32.050Z,1.67
2018-07-06T15:42:01.361Z,2.50
2018-07-06T15:44:30.484Z,2.93
2018-07-06T15:46:59.828Z,2.77
2018-07-06T15:49:29.171Z,3.30
2018-07-06T15:51:58.902Z,2.20
2018-07-06T15:54:28.296Z,2.63
2018-07-06T15:56:57.640Z,2.80
2018-07-06T15:59:26.984Z,2.40
2018-07-06T16:01:56.312Z,2.10
2018-07-06T16:04:25.782Z,2.10
2018-07-06T16:06:55.098Z,3.00
2018-07-06T16:09:24.758Z,2.67
2018-07-06T16:11:54.317Z,3.30
2018-07-06T16:14:24.052Z,1.83
2018-07-06T16:16:53.349Z,2.33
2018-07-06T16:19:22.684Z,2.90
2018-07-06T16:21:52.100Z,2.30
2018-07-06T16:24:21.933Z,2.60
2018-07-06T16:26:51.875Z,2.30
2018-07-06T16:29:21.336Z,3.00
2018-07-06T16:31:50.719Z,1.93
2018-07-06T16:34:20.133Z,2.20
2018-07-06T16:36:49.607Z,2.67
2018-07-06T16:39:19.063Z,2.17
2018-07-06T16:41:48.461Z,2.70
2018-07-06T16:44:17.929Z,2.40
2018-07-06T16:46:47.292Z,3.07
2018-07-06T16:49:16.736Z,3.03
2018-07-06T16:51:46.227Z,2.63
2018-07-06T16:54:15.575Z,2.33
2018-07-06T16:56:44.957Z,3.60
2018-07-06T16:59:14.420Z,3.47
2018-07-06T17:01:43.739Z,2.77
2018-07-06T17:04:13.034Z,3.03
2018-07-06T17:06:42.439Z,3.43
2018-07-06T17:09:11.867Z,3.50
2018-07-06T17:11:41.269Z,3.37
2018-07-06T17:14:10.774Z,3.50
2018-07-06T17:16:40.255Z,3.00
2018-07-06T17:19:09.731Z,2.80
2018-07-06T17:21:39.423Z,3.47
2018-07-06T17:24:08.830Z,2.53
2018-07-06T17:26:38.182Z,2.50
2018-07-06T17:29:07.555Z,3.23
2018-07-06T17:31:36.905Z,2.17
2018-07-06T17:34:06.358Z,2.63
2018-07-06T17:36:35.786Z,2.33
2018-07-06T17:39:06.167Z,2.60
2018-07-06T17:41:35.567Z,2.67
2018-07-06T17:44:05.387Z,2.63
2018-07-06T17:46:34.815Z,2.87
2018-07-06T17:49:04.291Z,2.30
2018-07-06T17:51:33.718Z,3.80
2018-07-06T17:54:03.075Z,2.80
2018-07-06T17:56:32.440Z,2.80
2018-07-06T17:59:02.209Z,2.80
2018-07-06T18:01:31.615Z,3.60
2018-07-06T18:04:01.306Z,2.63
2018-07-06T18:06:30.779Z,3.60
2018-07-06T18:09:00.285Z,3.00
2018-07-06T18:11:29.561Z,3.00
2018-07-06T18:14:01.202Z,3.23
2018-07-06T18:16:30.706Z,3.60
2018-07-06T18:19:00.159Z,3.17
2018-07-06T18:21:29.613Z,4.00
2018-07-06T18:23:58.965Z,2.60
2018-07-06T18:26:28.726Z,3.47
2018-07-06T18:28:58.335Z,2.43
2018-07-06T18:31:27.858Z,2.37
2018-07-06T18:33:57.229Z,2.50
2018-07-06T18:36:26.653Z,2.63
2018-07-06T18:38:56.098Z,3.27
2018-07-06T18:41:25.517Z,2.40
2018-07-06T18:43:55.027Z,3.07
2018-07-06T18:46:24.400Z,3.37
2018-07-06T18:48:53.795Z,3.07
2018-07-06T18:51:23.800Z,2.63
2018-07-06T18:53:53.133Z,2.80
2018-07-06T18:56:22.532Z,2.73
2018-07-06T18:58:52.283Z,3.13
2018-07-06T19:01:21.894Z,3.57
2018-07-06T19:03:51.604Z,2.87
2018-07-06T19:06:21.488Z,3.07
2018-07-06T19:08:50.918Z,3.03
2018-07-06T19:11:20.386Z,4.00
2018-07-06T19:13:50.096Z,3.20
2018-07-06T19:16:19.718Z,2.60
2018-07-06T19:18:49.123Z,3.00
2018-07-06T19:21:18.631Z,2.50
2018-07-06T19:23:48.086Z,3.97
2018-07-06T19:26:17.488Z,3.13
2018-07-06T19:28:46.987Z,3.00
2018-07-06T19:31:17.291Z,2.97
2018-07-06T19:33:46.907Z,3.03
2018-07-06T19:36:16.907Z,3.33
2018-07-06T19:38:46.636Z,3.03
2018-07-06T19:41:16.450Z,3.30
2018-07-06T19:43:45.940Z,3.10
2018-07-06T19:46:15.510Z,3.17
2018-07-06T19:48:45.093Z,3.27
2018-07-06T19:51:14.915Z,3.30
2018-07-06T19:53:44.641Z,3.00
2018-07-06T19:56:13.971Z,3.50
2018-07-06T19:58:43.678Z,3.57
2018-07-06T20:01:13.083Z,3.77
2018-07-06T20:03:42.498Z,3.27
2018-07-06T20:06:11.925Z,2.83
2018-07-06T20:08:41.589Z,3.57
2018-07-06T20:11:10.954Z,2.93
2018-07-06T20:13:40.392Z,3.87
2018-07-06T20:16:09.817Z,3.30
2018-07-06T20:18:39.296Z,2.93
2018-07-06T20:21:09.228Z,2.83
2018-07-06T20:23:38.647Z,3.27
2018-07-06T20:26:08.103Z,3.20
2018-07-06T20:28:37.502Z,6.70
2018-07-06T20:31:06.963Z,3.00
2018-07-06T20:33:36.328Z,3.27
2018-07-06T20:36:05.728Z,3.17
2018-07-06T20:38:35.016Z,3.40
2018-07-06T20:41:04.461Z,3.07
2018-07-06T20:43:34.488Z,3.40
2018-07-06T20:46:04.011Z,3.57
2018-07-06T20:48:33.392Z,2.30
2018-07-06T20:51:02.936Z,3.30
2018-07-06T20:53:32.273Z,4.00
2018-07-06T20:56:01.599Z,3.80
2018-07-06T20:58:31.072Z,3.47
2018-07-06T21:01:00.473Z,3.40
2018-07-06T21:03:29.882Z,3.37
2018-07-06T21:05:59.414Z,4.00
2018-07-06T21:08:28.514Z,3.70
2018-07-06T21:10:57.875Z,3.50
2018-07-06T21:13:27.223Z,3.87
2018-07-06T21:15:56.584Z,3.87
2018-07-06T21:18:26.222Z,3.57
2018-07-06T21:20:55.837Z,3.33
2018-07-06T21:23:25.214Z,3.33
2018-07-06T21:25:54.501Z,3.90
2018-07-06T21:28:24.244Z,4.03
2018-07-06T21:30:53.532Z,3.13
2018-07-06T21:33:26.481Z,2.93
2018-07-06T21:35:55.921Z,3.73
2018-07-06T21:38:25.306Z,4.00
2018-07-06T21:40:54.695Z,3.50
2018-07-06T21:43:24.063Z,3.73
2018-07-06T21:45:54.507Z,3.40
2018-07-06T21:48:24.359Z,2.80
2018-07-06T21:50:53.873Z,3.57
2018-07-06T21:53:23.349Z,4.13
2018-07-06T21:55:52.770Z,2.73
2018-07-06T21:58:21.864Z,3.40
2018-07-06T22:00:51.584Z,3.93
2018-07-06T22:03:21.009Z,3.40
2018-07-06T22:05:50.402Z,3.50
2018-07-06T22:08:19.775Z,3.50
2018-07-06T22:10:49.243Z,3.47
2018-07-06T22:13:18.612Z,3.90
2018-07-06T22:15:48.243Z,4.83
2018-07-06T22:18:18.774Z,3.60
2018-07-06T22:20:49.538Z,3.07
2018-07-06T22:23:18.839Z,4.27
2018-07-06T22:25:48.184Z,4.37
2018-07-06T22:28:17.520Z,4.97
2018-07-06T22:30:47.035Z,4.97
2018-07-06T22:33:16.453Z,3.50
2018-07-06T22:35:45.759Z,3.40
2018-07-06T22:38:15.160Z,3.43
2018-07-06T22:40:44.501Z,4.33
2018-07-06T22:43:13.833Z,4.33
2018-07-06T22:45:43.168Z,3.57
2018-07-06T22:48:12.476Z,3.40
2018-07-06T22:50:41.841Z,4.17
2018-07-06T22:53:11.165Z,4.10
2018-07-06T22:55:40.835Z,3.90
2018-07-06T22:58:10.220Z,4.00
2018-07-06T23:00:39.846Z,4.00
2018-07-06T23:03:09.222Z,3.70
2018-07-06T23:05:38.500Z,2.93
2018-07-06T23:08:07.840Z,4.20
2018-07-06T23:10:37.191Z,4.40
2018-07-06T23:13:06.860Z,4.27
2018-07-06T23:15:36.175Z,4.47
2018-07-06T23:18:06.195Z,3.60
2018-07-06T23:20:35.523Z,5.73
2018-07-06T23:23:08.717Z,4.40
2018-07-06T23:25:41.151Z,3.83
2018-07-06T23:28:10.486Z,3.53
2018-07-06T23:30:42.877Z,3.60
2018-07-06T23:33:12.778Z,3.80
2018-07-06T23:35:42.107Z,4.10
2018-07-06T23:38:11.482Z,4.10
2018-07-06T23:40:40.802Z,4.00
2018-07-06T23:43:10.095Z,3.67
2018-07-06T23:45:39.379Z,3.53
2018-07-06T23:48:08.700Z,3.90
2018-07-06T23:50:38.069Z,4.27
2018-07-06T23:53:07.638Z,3.73
2018-07-06T23:55:37.350Z,3.80
2018-07-06T23:58:07.056Z,3.57
